METAR Data
IDs: Format: Raw Decoded Include TAF

Data at: 0843 UTC 03 Aug 2021

KFWB 030835Z AUTO 09003KT 8SM OVC085 19/17 A3008 RMK AO2